Terminal Aerodrome Forecast
Issued by NWS Shreveport, LA

Home | Current Version | Previous Version | Text Only | Print | Product List | Glossary On
Versions: 1 2 3 4 5 6 7 8 9 10 11 12 13 14 15 16 17
000
FTUS44 KSHV 200500
TAFELD
TAF
KELD 200525Z 2006/2106 VRB03KT P6SM FEW150
      TEMPO 2011/2013 5SM BR SCT150 SCT300
     FM201900 VRB03KT P6SM BKN045
     FM210000 00000KT P6SM BKN040=

USA.gov is the U.S. government's official web portal to all federal, state and local government web resources and services.